sensor_id;sensor_type;location;lat;lon;timestamp;pressure;altitude;pressure_sealevel;temperature;humidity
8699;BME280;4386;51.236;6.742;2023-03-15T00:00:40;100748.41;;;6.49;64.70
8699;BME280;4386;51.236;6.742;2023-03-15T00:01:42;100750.13;;;6.50;64.74
8699;BME280;4386;51.236;6.742;2023-03-15T00:02:52;100758.09;;;6.49;64.94
8699;BME280;4386;51.236;6.742;2023-03-15T00:04:13;100762.50;;;6.48;64.96
8699;BME280;4386;51.236;6.742;2023-03-15T00:05:36;100760.06;;;6.45;65.14
8699;BME280;4386;51.236;6.742;2023-03-15T00:07:01;100757.44;;;6.45;65.48
8699;BME280;4386;51.236;6.742;2023-03-15T00:08:24;100753.13;;;6.44;65.53
8699;BME280;4386;51.236;6.742;2023-03-15T00:09:45;100762.88;;;6.42;65.75
8699;BME280;4386;51.236;6.742;2023-03-15T00:11:08;100772.56;;;6.42;65.74
8699;BME280;4386;51.236;6.742;2023-03-15T00:12:31;100770.03;;;6.40;66.20
8699;BME280;4386;51.236;6.742;2023-03-15T00:13:43;100775.28;;;6.40;65.94
8699;BME280;4386;51.236;6.742;2023-03-15T00:15:07;100773.41;;;6.42;66.18
8699;BME280;4386;51.236;6.742;2023-03-15T00:16:28;100778.66;;;6.42;66.09
8699;BME280;4386;51.236;6.742;2023-03-15T00:17:54;100781.22;;;6.44;66.66
8699;BME280;4386;51.236;6.742;2023-03-15T00:19:16;100779.44;;;6.44;66.54
8699;BME280;4386;51.236;6.742;2023-03-15T00:20:38;100778.47;;;6.45;67.02
8699;BME280;4386;51.236;6.742;2023-03-15T00:22:00;100782.91;;;6.45;67.20
8699;BME280;4386;51.236;6.742;2023-03-15T00:23:23;100779.44;;;6.44;67.23
8699;BME280;4386;51.236;6.742;2023-03-15T00:24:45;100793.44;;;6.45;67.35
8699;BME280;4386;51.236;6.742;2023-03-15T00:26:08;100778.66;;;6.42;67.28
8699;BME280;4386;51.236;6.742;2023-03-15T00:27:30;100786.75;;;6.39;67.68
8699;BME280;4386;51.236;6.742;2023-03-15T00:28:52;100787.69;;;6.38;67.86
8699;BME280;4386;51.236;6.742;2023-03-15T00:30:14;100787.03;;;6.35;68.05
8699;BME280;4386;51.236;6.742;2023-03-15T00:31:37;100790.59;;;6.34;68.23
8699;BME280;4386;51.236;6.742;2023-03-15T00:33:01;100788.03;;;6.32;68.56
8699;BME280;4386;51.236;6.742;2023-03-15T00:34:26;100798.69;;;6.31;68.50
8699;BME280;4386;51.236;6.742;2023-03-15T00:35:48;100795.38;;;6.27;69.13
8699;BME280;4386;51.236;6.742;2023-03-15T00:37:14;100811.34;;;6.24;69.42
8699;BME280;4386;51.236;6.742;2023-03-15T00:38:41;100801.00;;;6.21;69.44
8699;BME280;4386;51.236;6.742;2023-03-15T00:40:05;100799.50;;;6.17;69.40
8699;BME280;4386;51.236;6.742;2023-03-15T00:41:27;100797.97;;;6.13;69.86
8699;BME280;4386;51.236;6.742;2023-03-15T00:42:50;100804.34;;;6.09;69.79
8699;BME280;4386;51.236;6.742;2023-03-15T00:44:12;100799.38;;;6.04;70.13
8699;BME280;4386;51.236;6.742;2023-03-15T00:45:35;100809.97;;;6.03;70.32
8699;BME280;4386;51.236;6.742;2023-03-15T00:46:57;100809.22;;;6.01;70.67
8699;BME280;4386;51.236;6.742;2023-03-15T00:48:21;100803.94;;;6.01;70.96
8699;BME280;4386;51.236;6.742;2023-03-15T00:49:44;100810.06;;;6.01;71.19
8699;BME280;4386;51.236;6.742;2023-03-15T00:51:09;100808.28;;;6.02;71.45
8699;BME280;4386;51.236;6.742;2023-03-15T00:52:33;100805.56;;;6.03;71.59
8699;BME280;4386;51.236;6.742;2023-03-15T00:53:57;100801.16;;;6.04;71.61
8699;BME280;4386;51.236;6.742;2023-03-15T00:55:19;100793.25;;;6.04;72.00
8699;BME280;4386;51.236;6.742;2023-03-15T00:56:42;100796.63;;;6.06;71.99
8699;BME280;4386;51.236;6.742;2023-03-15T00:58:05;100802.56;;;6.09;72.43
8699;BME280;4386;51.236;6.742;2023-03-15T00:59:28;100792.72;;;6.13;72.70
8699;BME280;4386;51.236;6.742;2023-03-15T01:00:55;100797.78;;;6.16;72.22
8699;BME280;4386;51.236;6.742;2023-03-15T01:02:17;100798.56;;;6.18;72.53
8699;BME280;4386;51.236;6.742;2023-03-15T01:03:45;100791.34;;;6.21;72.75
8699;BME280;4386;51.236;6.742;2023-03-15T01:05:09;100796.41;;;6.24;72.93
8699;BME280;4386;51.236;6.742;2023-03-15T01:06:31;100795.56;;;6.24;73.15
8699;BME280;4386;51.236;6.742;2023-03-15T01:07:55;100799.06;;;6.24;73.35
8699;BME280;4386;51.236;6.742;2023-03-15T01:09:19;100796.50;;;6.23;73.20
8699;BME280;4386;51.236;6.742;2023-03-15T01:10:41;100797.41;;;6.22;73.28
8699;BME280;4386;51.236;6.742;2023-03-15T01:12:04;100800.06;;;6.22;73.61
8699;BME280;4386;51.236;6.742;2023-03-15T01:13:27;100799.22;;;6.21;73.76
8699;BME280;4386;51.236;6.742;2023-03-15T01:14:49;100807.94;;;6.22;73.50
8699;BME280;4386;51.236;6.742;2023-03-15T01:16:13;100804.50;;;6.21;73.62
8699;BME280;4386;51.236;6.742;2023-03-15T01:17:35;100807.03;;;6.23;73.81
8699;BME280;4386;51.236;6.742;2023-03-15T01:18:59;100811.34;;;6.24;74.17
8699;BME280;4386;51.236;6.742;2023-03-15T01:20:21;100808.63;;;6.25;74.18
8699;BME280;4386;51.236;6.742;2023-03-15T01:21:43;100811.16;;;6.27;74.20
8699;BME280;4386;51.236;6.742;2023-03-15T01:22:48;100812.03;;;6.27;74.54
8699;BME280;4386;51.236;6.742;2023-03-15T01:23:55;100809.28;;;6.29;74.62
8699;BME280;4386;51.236;6.742;2023-03-15T01:24:58;100804.03;;;6.29;74.71
8699;BME280;4386;51.236;6.742;2023-03-15T01:26:00;100807.63;;;6.28;74.50
8699;BME280;4386;51.236;6.742;2023-03-15T01:27:02;100805.81;;;6.28;74.97
8699;BME280;4386;51.236;6.742;2023-03-15T01:28:04;100806.66;;;6.29;74.65
8699;BME280;4386;51.236;6.742;2023-03-15T01:29:07;100806.66;;;6.29;74.95
8699;BME280;4386;51.236;6.742;2023-03-15T01:30:10;100811.00;;;6.30;75.11
8699;BME280;4386;51.236;6.742;2023-03-15T01:31:16;100807.44;;;6.31;74.94
8699;BME280;4386;51.236;6.742;2023-03-15T01:32:18;100812.59;;;6.33;74.88
8699;BME280;4386;51.236;6.742;2023-03-15T01:33:21;100815.16;;;6.34;75.09
8699;BME280;4386;51.236;6.742;2023-03-15T01:34:24;100817.78;;;6.34;75.11
8699;BME280;4386;51.236;6.742;2023-03-15T01:35:27;100816.00;;;6.35;75.31
8699;BME280;4386;51.236;6.742;2023-03-15T01:36:28;100816.81;;;6.35;75.22
8699;BME280;4386;51.236;6.742;2023-03-15T01:37:31;100819.38;;;6.37;75.26
8699;BME280;4386;51.236;6.742;2023-03-15T01:38:35;100822.84;;;6.37;75.46
8699;BME280;4386;51.236;6.742;2023-03-15T01:39:37;100827.16;;;6.38;75.36
8699;BME280;4386;51.236;6.742;2023-03-15T01:40:40;100822.75;;;6.39;75.15
8699;BME280;4386;51.236;6.742;2023-03-15T01:41:43;100822.84;;;6.37;75.05
8699;BME280;4386;51.236;6.742;2023-03-15T01:42:52;100829.78;;;6.38;75.55
8699;BME280;4386;51.236;6.742;2023-03-15T01:43:55;100825.31;;;6.40;75.40
8699;BME280;4386;51.236;6.742;2023-03-15T01:44:58;100821.75;;;6.41;75.80
8699;BME280;4386;51.236;6.742;2023-03-15T01:46:14;100828.69;;;6.42;75.50
8699;BME280;4386;51.236;6.742;2023-03-15T01:47:18;100827.81;;;6.42;75.27
8699;BME280;4386;51.236;6.742;2023-03-15T01:48:23;100824.38;;;6.41;75.47
8699;BME280;4386;51.236;6.742;2023-03-15T01:49:30;100830.56;;;6.40;75.65
8699;BME280;4386;51.236;6.742;2023-03-15T01:50:34;100824.38;;;6.41;75.43
8699;BME280;4386;51.236;6.742;2023-03-15T01:51:38;100826.91;;;6.43;75.76
8699;BME280;4386;51.236;6.742;2023-03-15T01:52:45;100824.09;;;6.46;75.41
8699;BME280;4386;51.236;6.742;2023-03-15T01:53:51;100829.28;;;6.47;75.69
8699;BME280;4386;51.236;6.742;2023-03-15T01:54:58;100828.31;;;6.48;75.41
8699;BME280;4386;51.236;6.742;2023-03-15T01:56:02;100827.50;;;6.48;75.35
8699;BME280;4386;51.236;6.742;2023-03-15T01:57:17;100832.66;;;6.49;75.53
8699;BME280;4386;51.236;6.742;2023-03-15T01:58:24;100836.22;;;6.48;75.55
8699;BME280;4386;51.236;6.742;2023-03-15T01:59:29;100824.84;;;6.48;75.70
8699;BME280;4386;51.236;6.742;2023-03-15T02:00:33;100829.09;;;6.50;75.72
8699;BME280;4386;51.236;6.742;2023-03-15T02:01:35;100830.75;;;6.51;75.59
8699;BME280;4386;51.236;6.742;2023-03-15T02:02:47;100834.16;;;6.53;75.84
8699;BME280;4386;51.236;6.742;2023-03-15T02:03:57;100828.91;;;6.53;75.75
8699;BME280;4386;51.236;6.742;2023-03-15T02:05:06;100830.59;;;6.54;75.96
8699;BME280;4386;51.236;6.742;2023-03-15T02:06:15;100834.06;;;6.55;76.13
8699;BME280;4386;51.236;6.742;2023-03-15T02:07:20;100837.53;;;6.55;75.76
8699;BME280;4386;51.236;6.742;2023-03-15T02:08:30;100830.59;;;6.54;75.70
8699;BME280;4386;51.236;6.742;2023-03-15T02:09:37;100837.53;;;6.55;75.76
8699;BME280;4386;51.236;6.742;2023-03-15T02:10:45;100832.28;;;6.55;75.69
8699;BME280;4386;51.236;6.742;2023-03-15T02:11:48;100833.97;;;6.56;75.97
8699;BME280;4386;51.236;6.742;2023-03-15T02:12:51;100832.19;;;6.57;76.03
8699;BME280;4386;51.236;6.742;2023-03-15T02:13:54;100834.91;;;6.55;76.12
8699;BME280;4386;51.236;6.742;2023-03-15T02:14:59;100832.28;;;6.55;75.95
8699;BME280;4386;51.236;6.742;2023-03-15T02:16:02;100838.41;;;6.56;75.98
8699;BME280;4386;51.236;6.742;2023-03-15T02:17:07;100831.44;;;6.55;76.18
8699;BME280;4386;51.236;6.742;2023-03-15T02:18:08;100833.31;;;6.53;76.36
8699;BME280;4386;51.236;6.742;2023-03-15T02:19:26;100827.38;;;6.49;75.95
8699;BME280;4386;51.236;6.742;2023-03-15T02:20:40;100822.13;;;6.49;76.47
8699;BME280;4386;51.236;6.742;2023-03-15T02:21:49;100822.13;;;6.49;76.30
8699;BME280;4386;51.236;6.742;2023-03-15T02:22:57;100825.69;;;6.48;76.07
8699;BME280;4386;51.236;6.742;2023-03-15T02:24:07;100829.09;;;6.50;76.26
8699;BME280;4386;51.236;6.742;2023-03-15T02:25:18;100823.81;;;6.50;76.29
8699;BME280;4386;51.236;6.742;2023-03-15T02:26:29;100828.13;;;6.51;76.00
8699;BME280;4386;51.236;6.742;2023-03-15T02:27:36;100819.31;;;6.52;76.06
8699;BME280;4386;51.236;6.742;2023-03-15T02:28:39;100826.28;;;6.53;76.33
8699;BME280;4386;51.236;6.742;2023-03-15T02:29:41;100827.97;;;6.54;76.15
8699;BME280;4386;51.236;6.742;2023-03-15T02:30:45;100827.19;;;6.52;75.88
8699;BME280;4386;51.236;6.742;2023-03-15T02:31:47;100820.34;;;6.50;76.40
8699;BME280;4386;51.236;6.742;2023-03-15T02:32:50;100832.66;;;6.49;76.10
8699;BME280;4386;51.236;6.742;2023-03-15T02:33:52;100829.28;;;6.47;75.81
8699;BME280;4386;51.236;6.742;2023-03-15T02:34:56;100831.13;;;6.45;76.13
8699;BME280;4386;51.236;6.742;2023-03-15T02:36:07;100838.28;;;6.43;76.19
8699;BME280;4386;51.236;6.742;2023-03-15T02:37:10;100839.38;;;6.39;76.09
8699;BME280;4386;51.236;6.742;2023-03-15T02:38:12;100843.91;;;6.37;75.95
8699;BME280;4386;51.236;6.742;2023-03-15T02:39:16;100838.47;;;6.40;76.51
8699;BME280;4386;51.236;6.742;2023-03-15T02:40:20;100841.84;;;6.42;76.65
8699;BME280;4386;51.236;6.742;2023-03-15T02:41:26;100845.25;;;6.44;76.18
8699;BME280;4386;51.236;6.742;2023-03-15T02:42:29;100847.88;;;6.44;76.39
8699;BME280;4386;51.236;6.742;2023-03-15T02:43:34;100850.50;;;6.44;76.11
8699;BME280;4386;51.236;6.742;2023-03-15T02:44:38;100852.38;;;6.42;76.49
8699;BME280;4386;51.236;6.742;2023-03-15T02:45:43;100842.81;;;6.41;76.11
8699;BME280;4386;51.236;6.742;2023-03-15T02:46:48;100855.97;;;6.41;76.54
8699;BME280;4386;51.236;6.742;2023-03-15T02:47:52;100849.84;;;6.41;76.37
8699;BME280;4386;51.236;6.742;2023-03-15T02:48:55;100848.13;;;6.40;76.39
8699;BME280;4386;51.236;6.742;2023-03-15T02:49:57;100855.19;;;6.39;76.15
8699;BME280;4386;51.236;6.742;2023-03-15T02:50:59;100854.34;;;6.39;76.31
8699;BME280;4386;51.236;6.742;2023-03-15T02:52:02;100851.88;;;6.36;76.12
8699;BME280;4386;51.236;6.742;2023-03-15T02:53:05;100850.22;;;6.35;76.27
8699;BME280;4386;51.236;6.742;2023-03-15T02:54:07;100862.50;;;6.34;76.21
8699;BME280;4386;51.236;6.742;2023-03-15T02:55:10;100860.81;;;6.33;76.43
8699;BME280;4386;51.236;6.742;2023-03-15T02:56:11;100852.25;;;6.29;76.14
8699;BME280;4386;51.236;6.742;2023-03-15T02:57:17;100855.91;;;6.27;76.40
8699;BME280;4386;51.236;6.742;2023-03-15T02:58:19;100853.28;;;6.27;76.22
8699;BME280;4386;51.236;6.742;2023-03-15T02:59:23;100857.75;;;6.25;76.38
8699;BME280;4386;51.236;6.742;2023-03-15T03:00:25;100860.38;;;6.25;76.23
8699;BME280;4386;51.236;6.742;2023-03-15T03:01:28;100860.38;;;6.25;76.20
8699;BME280;4386;51.236;6.742;2023-03-15T03:02:32;100859.47;;;6.26;76.71
8699;BME280;4386;51.236;6.742;2023-03-15T03:03:34;100867.28;;;6.27;76.40
8699;BME280;4386;51.236;6.742;2023-03-15T03:04:36;100867.19;;;6.29;76.31
8699;BME280;4386;51.236;6.742;2023-03-15T03:05:39;100868.03;;;6.29;76.67
8699;BME280;4386;51.236;6.742;2023-03-15T03:06:40;100868.88;;;6.30;76.63
8699;BME280;4386;51.236;6.742;2023-03-15T03:07:44;100866.25;;;6.30;76.37
8699;BME280;4386;51.236;6.742;2023-03-15T03:08:46;100861.91;;;6.29;76.17
8699;BME280;4386;51.236;6.742;2023-03-15T03:09:48;100866.44;;;6.27;76.11
8699;BME280;4386;51.236;6.742;2023-03-15T03:10:50;100867.34;;;6.26;76.33
8699;BME280;4386;51.236;6.742;2023-03-15T03:11:53;100867.34;;;6.26;76.48
8699;BME280;4386;51.236;6.742;2023-03-15T03:12:54;100869.06;;;6.27;76.30
8699;BME280;4386;51.236;6.742;2023-03-15T03:13:57;100870.91;;;6.25;76.51
8699;BME280;4386;51.236;6.742;2023-03-15T03:15:00;100878.91;;;6.23;76.22
8699;BME280;4386;51.236;6.742;2023-03-15T03:16:04;100871.19;;;6.20;76.20
8699;BME280;4386;51.236;6.742;2023-03-15T03:17:06;100874.00;;;6.17;76.06
8699;BME280;4386;51.236;6.742;2023-03-15T03:18:08;100875.03;;;6.15;76.11
8699;BME280;4386;51.236;6.742;2023-03-15T03:19:11;100877.75;;;6.13;75.75
8699;BME280;4386;51.236;6.742;2023-03-15T03:20:14;100882.16;;;6.13;76.22
8699;BME280;4386;51.236;6.742;2023-03-15T03:21:16;100879.63;;;6.11;76.25
8699;BME280;4386;51.236;6.742;2023-03-15T03:22:18;100883.09;;;6.12;76.60
8699;BME280;4386;51.236;6.742;2023-03-15T03:23:20;100876.03;;;6.12;76.21
8699;BME280;4386;51.236;6.742;2023-03-15T03:24:26;100882.09;;;6.14;76.49
8699;BME280;4386;51.236;6.742;2023-03-15T03:25:27;100890.81;;;6.15;76.18
8699;BME280;4386;51.236;6.742;2023-03-15T03:26:30;100889.03;;;6.15;76.36
8699;BME280;4386;51.236;6.742;2023-03-15T03:27:33;100890.81;;;6.15;76.24
8699;BME280;4386;51.236;6.742;2023-03-15T03:28:37;100894.22;;;6.17;76.71
8699;BME280;4386;51.236;6.742;2023-03-15T03:29:38;100885.38;;;6.18;76.37
8699;BME280;4386;51.236;6.742;2023-03-15T03:30:42;100894.97;;;6.19;76.39
8699;BME280;4386;51.236;6.742;2023-03-15T03:31:46;100898.38;;;6.21;76.58
8699;BME280;4386;51.236;6.742;2023-03-15T03:32:49;100898.25;;;6.22;76.37
8699;BME280;4386;51.236;6.742;2023-03-15T03:33:59;100896.41;;;6.24;76.28
8699;BME280;4386;51.236;6.742;2023-03-15T03:35:02;100903.34;;;6.25;76.22
8699;BME280;4386;51.236;6.742;2023-03-15T03:36:05;100905.97;;;6.25;76.66
8699;BME280;4386;51.236;6.742;2023-03-15T03:37:07;100902.50;;;6.25;76.46
8699;BME280;4386;51.236;6.742;2023-03-15T03:38:10;100902.66;;;6.22;76.40
8699;BME280;4386;51.236;6.742;2023-03-15T03:39:13;100909.81;;;6.20;76.06
8699;BME280;4386;51.236;6.742;2023-03-15T03:40:15;100914.50;;;6.15;75.97
8699;BME280;4386;51.236;6.742;2023-03-15T03:41:17;100911.09;;;6.13;76.31
8699;BME280;4386;51.236;6.742;2023-03-15T03:42:20;100912.97;;;6.11;76.29
8699;BME280;4386;51.236;6.742;2023-03-15T03:43:22;100914.75;;;6.10;76.15
8699;BME280;4386;51.236;6.742;2023-03-15T03:44:24;100911.28;;;6.10;76.45
8699;BME280;4386;51.236;6.742;2023-03-15T03:45:26;100910.53;;;6.08;76.54
8699;BME280;4386;51.236;6.742;2023-03-15T03:46:29;100914.06;;;6.07;76.37
8699;BME280;4386;51.236;6.742;2023-03-15T03:47:32;100914.81;;;6.09;76.43
8699;BME280;4386;51.236;6.742;2023-03-15T03:48:34;100920.94;;;6.09;76.36
8699;BME280;4386;51.236;6.742;2023-03-15T03:49:37;100924.44;;;6.10;76.35
8699;BME280;4386;51.236;6.742;2023-03-15T03:50:38;100924.44;;;6.10;76.52
8699;BME280;4386;51.236;6.742;2023-03-15T03:51:41;100926.13;;;6.11;76.43
8699;BME280;4386;51.236;6.742;2023-03-15T03:52:43;100925.28;;;6.10;76.54
8699;BME280;4386;51.236;6.742;2023-03-15T03:53:45;100920.00;;;6.10;76.48
8699;BME280;4386;51.236;6.742;2023-03-15T03:54:47;100926.13;;;6.11;76.28
8699;BME280;4386;51.236;6.742;2023-03-15T03:55:50;100929.63;;;6.11;76.66
8699;BME280;4386;51.236;6.742;2023-03-15T03:56:52;100936.66;;;6.11;76.55
8699;BME280;4386;51.236;6.742;2023-03-15T03:57:54;100938.50;;;6.09;76.46
8699;BME280;4386;51.236;6.742;2023-03-15T03:59:06;100936.81;;;6.08;76.50
8699;BME280;4386;51.236;6.742;2023-03-15T04:00:11;100935.13;;;6.07;76.60
8699;BME280;4386;51.236;6.742;2023-03-15T04:01:18;100937.81;;;6.05;76.45
8699;BME280;4386;51.236;6.742;2023-03-15T04:02:23;100937.94;;;6.04;76.57
8699;BME280;4386;51.236;6.742;2023-03-15T04:03:27;100935.28;;;6.04;76.55
8699;BME280;4386;51.236;6.742;2023-03-15T04:04:30;100939.69;;;6.03;76.77
8699;BME280;4386;51.236;6.742;2023-03-15T04:05:31;100946.75;;;6.03;76.86
8699;BME280;4386;51.236;6.742;2023-03-15T04:06:34;100947.78;;;6.00;76.64
8699;BME280;4386;51.236;6.742;2023-03-15T04:07:46;100948.69;;;5.99;76.77
8699;BME280;4386;51.236;6.742;2023-03-15T04:08:48;100950.41;;;6.00;76.74
8699;BME280;4386;51.236;6.742;2023-03-15T04:09:50;100948.69;;;5.99;76.92
8699;BME280;4386;51.236;6.742;2023-03-15T04:10:53;100955.75;;;5.99;76.97
8699;BME280;4386;51.236;6.742;2023-03-15T04:11:55;100953.13;;;5.99;77.07
8699;BME280;4386;51.236;6.742;2023-03-15T04:12:58;100963.66;;;5.99;76.88
8699;BME280;4386;51.236;6.742;2023-03-15T04:14:00;100959.22;;;5.99;77.08
8699;BME280;4386;51.236;6.742;2023-03-15T04:15:08;100960.91;;;6.00;77.25
8699;BME280;4386;51.236;6.742;2023-03-15T04:16:11;100967.97;;;6.00;77.11
8699;BME280;4386;51.236;6.742;2023-03-15T04:17:14;100964.47;;;5.99;77.11
8699;BME280;4386;51.236;6.742;2023-03-15T04:18:17;100970.69;;;5.98;77.16
8699;BME280;4386;51.236;6.742;2023-03-15T04:19:20;100967.22;;;5.98;77.08
8699;BME280;4386;51.236;6.742;2023-03-15T04:20:22;100972.47;;;5.98;77.38
8699;BME280;4386;51.236;6.742;2023-03-15T04:21:25;100975.28;;;5.95;77.33
8699;BME280;4386;51.236;6.742;2023-03-15T04:22:26;100977.03;;;5.94;77.12
8699;BME280;4386;51.236;6.742;2023-03-15T04:23:29;100977.13;;;5.93;77.02
8699;BME280;4386;51.236;6.742;2023-03-15T04:24:31;100981.63;;;5.91;77.01
8699;BME280;4386;51.236;6.742;2023-03-15T04:25:34;100977.44;;;5.87;76.96
8699;BME280;4386;51.236;6.742;2023-03-15T04:26:36;100983.78;;;5.83;77.06
8699;BME280;4386;51.236;6.742;2023-03-15T04:27:38;100978.59;;;5.81;77.14
8699;BME280;4386;51.236;6.742;2023-03-15T04:28:40;100974.38;;;5.78;77.34
8699;BME280;4386;51.236;6.742;2023-03-15T04:29:43;100978.84;;;5.76;77.34
8699;BME280;4386;51.236;6.742;2023-03-15T04:30:46;100977.19;;;5.75;77.09
8699;BME280;4386;51.236;6.742;2023-03-15T04:31:49;100982.59;;;5.72;77.25
8699;BME280;4386;51.236;6.742;2023-03-15T04:32:51;100982.72;;;5.69;77.11
8699;BME280;4386;51.236;6.742;2023-03-15T04:34:00;100981.13;;;5.67;77.56
8699;BME280;4386;51.236;6.742;2023-03-15T04:35:03;100970.88;;;5.62;77.51
8699;BME280;4386;51.236;6.742;2023-03-15T04:36:06;100976.13;;;5.62;77.46
8699;BME280;4386;51.236;6.742;2023-03-15T04:37:08;100978.75;;;5.62;77.31
8699;BME280;4386;51.236;6.742;2023-03-15T04:38:10;100971.88;;;5.60;77.71
8699;BME280;4386;51.236;6.742;2023-03-15T04:39:15;100976.31;;;5.59;77.58
8699;BME280;4386;51.236;6.742;2023-03-15T04:40:17;100976.38;;;5.58;77.59
8699;BME280;4386;51.236;6.742;2023-03-15T04:41:19;100972.72;;;5.60;77.94
8699;BME280;4386;51.236;6.742;2023-03-15T04:42:29;100978.75;;;5.62;77.68
8699;BME280;4386;51.236;6.742;2023-03-15T04:43:30;100975.13;;;5.65;78.05
8699;BME280;4386;51.236;6.742;2023-03-15T04:44:33;100982.91;;;5.66;78.02
8699;BME280;4386;51.236;6.742;2023-03-15T04:45:35;100988.00;;;5.69;78.15
8699;BME280;4386;51.236;6.742;2023-03-15T04:46:37;100988.78;;;5.71;77.98
8699;BME280;4386;51.236;6.742;2023-03-15T04:47:45;100980.91;;;5.71;78.17
8699;BME280;4386;51.236;6.742;2023-03-15T04:48:46;100984.28;;;5.73;78.40
8699;BME280;4386;51.236;6.742;2023-03-15T04:49:50;100985.97;;;5.74;78.28
8699;BME280;4386;51.236;6.742;2023-03-15T04:50:52;100984.09;;;5.76;78.12
8699;BME280;4386;51.236;6.742;2023-03-15T04:51:54;100993.63;;;5.79;78.33
8699;BME280;4386;51.236;6.742;2023-03-15T04:52:56;100989.19;;;5.79;78.45
8699;BME280;4386;51.236;6.742;2023-03-15T04:53:59;100995.41;;;5.78;78.24
8699;BME280;4386;51.236;6.742;2023-03-15T04:55:01;100995.41;;;5.78;78.22
8699;BME280;4386;51.236;6.742;2023-03-15T04:56:04;100995.41;;;5.78;78.32
8699;BME280;4386;51.236;6.742;2023-03-15T04:57:06;100994.63;;;5.76;78.10
8699;BME280;4386;51.236;6.742;2023-03-15T04:58:09;101004.28;;;5.76;78.09
8699;BME280;4386;51.236;6.742;2023-03-15T04:59:11;101001.75;;;5.74;78.18
8699;BME280;4386;51.236;6.742;2023-03-15T05:00:14;101000.06;;;5.73;78.38
8699;BME280;4386;51.236;6.742;2023-03-15T05:01:17;101000.06;;;5.73;78.41
8699;BME280;4386;51.236;6.742;2023-03-15T05:02:19;101007.09;;;5.73;78.41
8699;BME280;4386;51.236;6.742;2023-03-15T05:03:21;101007.00;;;5.74;78.25
8699;BME280;4386;51.236;6.742;2023-03-15T05:04:24;101008.72;;;5.75;78.41
8699;BME280;4386;51.236;6.742;2023-03-15T05:05:27;101015.66;;;5.76;78.71
8699;BME280;4386;51.236;6.742;2023-03-15T05:06:39;101014.81;;;5.76;78.49
8699;BME280;4386;51.236;6.742;2023-03-15T05:07:41;101009.53;;;5.76;78.64
8699;BME280;4386;51.236;6.742;2023-03-15T05:08:48;101014.16;;;5.72;78.33
8699;BME280;4386;51.236;6.742;2023-03-15T05:09:50;101012.44;;;5.71;78.59
8699;BME280;4386;51.236;6.742;2023-03-15T05:10:52;101016.00;;;5.70;78.30
8699;BME280;4386;51.236;6.742;2023-03-15T05:11:54;101011.66;;;5.69;78.62
8699;BME280;4386;51.236;6.742;2023-03-15T05:12:57;101021.25;;;5.70;78.67
8699;BME280;4386;51.236;6.742;2023-03-15T05:14:00;101020.41;;;5.70;78.35
8699;BME280;4386;51.236;6.742;2023-03-15T05:15:04;101018.72;;;5.69;78.33
8699;BME280;4386;51.236;6.742;2023-03-15T05:16:05;101017.88;;;5.68;78.53
8699;BME280;4386;51.236;6.742;2023-03-15T05:17:08;101017.06;;;5.66;78.63
8699;BME280;4386;51.236;6.742;2023-03-15T05:18:10;101024.97;;;5.66;78.63
8699;BME280;4386;51.236;6.742;2023-03-15T05:19:12;101032.09;;;5.64;78.53
8699;BME280;4386;51.236;6.742;2023-03-15T05:20:14;101022.66;;;5.60;78.47
8699;BME280;4386;51.236;6.742;2023-03-15T05:21:18;101026.31;;;5.58;78.70
8699;BME280;4386;51.236;6.742;2023-03-15T05:22:20;101034.25;;;5.56;78.66
8699;BME280;4386;51.236;6.742;2023-03-15T05:23:25;101032.59;;;5.55;78.57
8699;BME280;4386;51.236;6.742;2023-03-15T05:24:27;101027.38;;;5.54;78.46
8699;BME280;4386;51.236;6.742;2023-03-15T05:25:30;101032.75;;;5.52;78.75
8699;BME280;4386;51.236;6.742;2023-03-15T05:26:32;101029.25;;;5.52;79.03
8699;BME280;4386;51.236;6.742;2023-03-15T05:27:45;101039.84;;;5.50;78.32
8699;BME280;4386;51.236;6.742;2023-03-15T05:28:47;101039.09;;;5.48;78.73
8699;BME280;4386;51.236;6.742;2023-03-15T05:29:49;101046.13;;;5.48;78.87
8699;BME280;4386;51.236;6.742;2023-03-15T05:30:52;101049.59;;;5.48;78.79
8699;BME280;4386;51.236;6.742;2023-03-15T05:31:54;101054.84;;;5.48;78.76
8699;BME280;4386;51.236;6.742;2023-03-15T05:32:56;101052.22;;;5.48;78.98
8699;BME280;4386;51.236;6.742;2023-03-15T05:33:59;101050.44;;;5.49;78.80
8699;BME280;4386;51.236;6.742;2023-03-15T05:35:05;101056.56;;;5.49;79.01
8699;BME280;4386;51.236;6.742;2023-03-15T05:36:08;101056.56;;;5.49;79.09
8699;BME280;4386;51.236;6.742;2023-03-15T05:37:15;101047.81;;;5.49;78.76
8699;BME280;4386;51.236;6.742;2023-03-15T05:38:17;101060.00;;;5.50;79.12
8699;BME280;4386;51.236;6.742;2023-03-15T05:39:20;101065.28;;;5.50;79.02
8699;BME280;4386;51.236;6.742;2023-03-15T05:40:23;101060.88;;;5.50;79.14
8699;BME280;4386;51.236;6.742;2023-03-15T05:41:26;101066.13;;;5.50;78.92
8699;BME280;4386;51.236;6.742;2023-03-15T05:42:27;101068.75;;;5.50;79.07
8699;BME280;4386;51.236;6.742;2023-03-15T05:43:30;101076.72;;;5.49;79.08
8699;BME280;4386;51.236;6.742;2023-03-15T05:44:31;101072.41;;;5.48;78.99
8699;BME280;4386;51.236;6.742;2023-03-15T05:45:34;101069.00;;;5.46;79.08
8699;BME280;4386;51.236;6.742;2023-03-15T05:46:36;101077.75;;;5.46;78.97
8699;BME280;4386;51.236;6.742;2023-03-15T05:47:38;101078.56;;;5.47;79.16
8699;BME280;4386;51.236;6.742;2023-03-15T05:48:40;101080.38;;;5.46;79.28
8699;BME280;4386;51.236;6.742;2023-03-15T05:49:42;101078.66;;;5.45;79.24
8699;BME280;4386;51.236;6.742;2023-03-15T05:50:44;101070.78;;;5.45;79.25
8699;BME280;4386;51.236;6.742;2023-03-15T05:51:47;101080.38;;;5.46;79.17
8699;BME280;4386;51.236;6.742;2023-03-15T05:52:50;101078.66;;;5.45;79.13
8699;BME280;4386;51.236;6.742;2023-03-15T05:53:53;101083.94;;;5.45;78.96
8699;BME280;4386;51.236;6.742;2023-03-15T05:54:55;101079.59;;;5.44;79.21
8699;BME280;4386;51.236;6.742;2023-03-15T05:55:57;101081.34;;;5.44;79.30
8699;BME280;4386;51.236;6.742;2023-03-15T05:57:09;101079.53;;;5.46;78.93
8699;BME280;4386;51.236;6.742;2023-03-15T05:58:22;101090.88;;;5.46;79.14
8699;BME280;4386;51.236;6.742;2023-03-15T05:59:24;101088.25;;;5.46;79.25
8699;BME280;4386;51.236;6.742;2023-03-15T06:00:26;101096.97;;;5.47;79.24
8699;BME280;4386;51.236;6.742;2023-03-15T06:01:34;101092.56;;;5.47;79.24
8699;BME280;4386;51.236;6.742;2023-03-15T06:02:37;101091.72;;;5.47;79.15
8699;BME280;4386;51.236;6.742;2023-03-15T06:03:38;101100.38;;;5.49;79.32
8699;BME280;4386;51.236;6.742;2023-03-15T06:04:41;101094.28;;;5.48;79.43
8699;BME280;4386;51.236;6.742;2023-03-15T06:05:43;101094.13;;;5.51;79.37